Time;durP1;ratioP1;P1;durP2;ratioP2;P2;SDS_P1;SDS_P2;PMS_P1;PMS_P2;Temp;Humidity;BMP_temperature;BMP_pressure;BME280_temperature;BME280_humidity;BME280_pressure;Samples;Min_cycle;Max_cycle;Signal;HPM_P1;HPM_P2
2021/04/19 00:00:19;;;;;;;9.52;8.23;;;;;;;1.20;95.17;93224.22;2098282;28;20021;-83
2021/04/19 00:01:19;;;;;;;11.45;8.52;;;;;;;1.12;95.60;93223.34;2106807;28;20028;-82
2021/04/19 00:02:20;;;;;;;9.57;7.32;;;;;;;1.16;95.47;93216.25;2099166;28;20028;-83
2021/04/19 00:03:20;;;;;;;8.82;7.78;;;;;;;1.15;95.52;93219.25;2106533;28;20020;-83
2021/04/19 00:04:21;;;;;;;9.27;7.53;;;;;;;1.16;94.97;93224.16;2114969;28;20051;-83
2021/04/19 00:05:21;;;;;;;10.57;7.75;;;;;;;1.13;95.02;93216.19;2115052;28;20115;-83
2021/04/19 00:06:22;;;;;;;10.90;8.18;;;;;;;1.09;95.12;93218.75;2106657;28;20024;-83
2021/04/19 00:07:22;;;;;;;10.10;7.80;;;;;;;1.12;94.22;93214.69;2106590;28;20020;-82
2021/04/19 00:08:23;;;;;;;10.10;8.25;;;;;;;1.13;94.46;93209.06;2115045;28;20019;-83
2021/04/19 00:09:23;;;;;;;10.07;7.32;;;;;;;1.16;93.96;93218.88;2106480;28;20024;-83
2021/04/19 00:10:24;;;;;;;8.63;7.38;;;;;;;1.16;93.71;93220.75;2106830;28;20149;-83
2021/04/19 00:11:25;;;;;;;10.90;7.72;;;;;;;1.30;93.09;93207.03;2114999;28;20027;-82
2021/04/19 00:12:25;;;;;;;9.90;7.30;;;;;;;1.36;92.83;93205.63;2098128;28;20024;-82
2021/04/19 00:13:26;;;;;;;11.93;7.50;;;;;;;1.33;92.52;93211.59;2114803;28;20072;-83
2021/04/19 00:14:26;;;;;;;8.30;7.28;;;;;;;1.16;92.89;93202.34;2114958;28;20492;-82
2021/04/19 00:15:31;;;;;;;9.23;7.70;;;;;;;1.16;93.31;93197.81;2097039;28;20030;-83
2021/04/19 00:16:32;;;;;;;9.73;7.63;;;;;;;1.06;93.74;93205.56;2114126;27;20030;-83
2021/04/19 00:17:33;;;;;;;10.43;7.88;;;;;;;1.03;93.88;93203.63;2114902;28;20051;-82
2021/04/19 00:18:33;;;;;;;9.77;7.68;;;;;;;1.05;94.23;93201.41;2106613;28;20016;-83
2021/04/19 00:19:34;;;;;;;8.80;7.50;;;;;;;0.93;93.88;93200.50;2106410;28;20051;-82
2021/04/19 00:20:34;;;;;;;8.13;6.93;;;;;;;0.94;94.24;93195.97;2098164;28;20060;-83
2021/04/19 00:21:35;;;;;;;7.85;7.05;;;;;;;0.89;94.21;93206.81;2106404;28;20016;-83
2021/04/19 00:22:36;;;;;;;8.60;7.63;;;;;;;0.84;94.49;93201.84;2106317;28;20027;-83
2021/04/19 00:23:36;;;;;;;8.73;7.82;;;;;;;0.84;94.30;93201.84;2098185;28;20020;-82
2021/04/19 00:24:37;;;;;;;8.30;7.43;;;;;;;0.79;94.47;93199.50;2106329;28;20035;-83
2021/04/19 00:25:37;;;;;;;9.70;7.68;;;;;;;0.73;94.01;93199.03;2103888;28;20054;-83
2021/04/19 00:26:37;;;;;;;9.65;7.28;;;;;;;0.77;94.52;93199.09;2098210;28;20121;-83
2021/04/19 00:27:38;;;;;;;8.82;7.68;;;;;;;0.73;94.14;93199.78;2111735;27;20458;-83
2021/04/19 00:28:38;;;;;;;9.82;7.57;;;;;;;0.75;93.97;93199.44;2106485;28;20027;-83
2021/04/19 00:29:39;;;;;;;9.18;7.32;;;;;;;0.73;93.97;93199.03;2103421;28;20044;-83
2021/04/19 00:30:40;;;;;;;7.90;7.10;;;;;;;0.69;94.21;93203.47;2109155;28;20039;-83
2021/04/19 00:31:41;;;;;;;8.18;6.93;;;;;;;0.70;93.60;93202.34;2114960;28;20441;-83
2021/04/19 00:32:41;;;;;;;9.68;7.68;;;;;;;0.69;93.41;93198.22;2103260;28;20017;-83
2021/04/19 00:33:42;;;;;;;8.80;7.20;;;;;;;0.53;94.02;93203.59;2101205;28;20066;-82
2021/04/19 00:34:42;;;;;;;8.38;7.07;;;;;;;0.62;93.93;93195.47;2111520;28;20114;-82
2021/04/19 00:35:42;;;;;;;10.07;7.28;;;;;;;0.54;94.82;93207.75;2097937;28;20013;-82
2021/04/19 00:36:43;;;;;;;9.10;7.50;;;;;;;0.58;94.55;93211.19;2109512;28;20027;-83
2021/04/19 00:37:46;;;;;;;8.10;7.30;;;;;;;0.57;94.65;93201.78;2106358;28;20575;-83
2021/04/19 00:38:47;;;;;;;8.57;7.15;;;;;;;0.57;94.34;93201.00;2101862;28;20024;-83
2021/04/19 00:39:47;;;;;;;10.23;7.25;;;;;;;0.55;93.68;93205.88;2102555;28;20060;-83
2021/04/19 00:40:51;;;;;;;10.77;7.45;;;;;;;0.55;93.53;93203.25;2106399;28;20020;-83
2021/04/19 00:41:51;;;;;;;8.75;7.63;;;;;;;0.53;94.47;93208.84;2107150;27;20055;-83
2021/04/19 00:42:54;;;;;;;8.10;7.20;;;;;;;0.50;93.72;93209.53;2106163;28;20035;-83
2021/04/19 00:43:54;;;;;;;7.85;7.05;;;;;;;0.53;93.63;93203.59;2106295;28;20103;-83
2021/04/19 00:44:54;;;;;;;9.38;7.80;;;;;;;0.48;92.91;93204.66;2108131;28;20031;-83
2021/04/19 00:46:02;;;;;;;8.65;7.55;;;;;;;0.36;92.95;93202.16;2089812;28;20028;-83
2021/04/19 00:47:03;;;;;;;9.55;7.63;;;;;;;0.35;92.90;93205.91;2103346;27;20032;-83
2021/04/19 00:48:04;;;;;;;8.65;7.13;;;;;;;0.33;93.28;93197.59;2112759;28;20028;-83
2021/04/19 00:49:04;;;;;;;11.20;7.43;;;;;;;0.23;92.82;93200.81;2090570;28;20115;-82
2021/04/19 00:50:08;;;;;;;9.45;7.57;;;;;;;0.20;93.18;93206.75;2097976;28;20020;-82
2021/04/19 00:51:09;;;;;;;8.88;7.13;;;;;;;0.15;93.13;93201.78;2098863;28;20081;-83
2021/04/19 00:52:10;;;;;;;10.27;7.47;;;;;;;0.12;94.01;93194.59;2097737;28;20500;-83
2021/04/19 00:53:11;;;;;;;8.10;7.13;;;;;;;0.08;93.77;93194.50;2100482;28;20093;-83
2021/04/19 00:54:13;;;;;;;8.07;7.10;;;;;;;0.04;94.48;93198.94;2105080;28;20028;-83
2021/04/19 00:55:16;;;;;;;8.02;6.78;;;;;;;0.07;94.59;93205.38;2106120;28;20016;-83
2021/04/19 00:56:16;;;;;;;9.57;7.13;;;;;;;0.08;94.23;93196.38;2114993;27;20023;-83
2021/04/19 00:57:17;;;;;;;9.18;7.18;;;;;;;0.08;94.68;93193.75;2098314;28;20035;-82
2021/04/19 00:58:18;;;;;;;8.93;6.85;;;;;;;-0.01;95.17;93192.09;2097191;28;20025;-83
2021/04/19 00:59:19;;;;;;;9.98;6.78;;;;;;;-0.02;95.43;93190.59;2089552;28;20574;-83
2021/04/19 01:00:25;;;;;;;7.97;6.72;;;;;;;-0.05;95.48;93190.50;2097662;28;20025;-83
2021/04/19 01:01:30;;;;;;;9.93;7.68;;;;;;;-0.17;95.12;93188.81;2099199;28;20024;-83
2021/04/19 01:02:30;;;;;;;9.73;7.10;;;;;;;-0.23;94.86;93186.78;2098855;28;20024;-83
2021/04/19 01:03:31;;;;;;;8.65;6.63;;;;;;;-0.22;95.50;93183.03;2097665;28;20382;-83
2021/04/19 01:04:32;;;;;;;8.30;6.90;;;;;;;-0.27;95.80;93182.22;2106103;28;20109;-83
2021/04/19 01:05:38;;;;;;;9.48;6.90;;;;;;;-0.29;95.30;93183.69;2104365;28;20023;-83
2021/04/19 01:06:38;;;;;;;9.93;7.35;;;;;;;-0.35;95.05;93183.19;2098628;28;20079;-83
2021/04/19 01:07:39;;;;;;;10.00;7.47;;;;;;;-0.42;95.25;93184.91;2091840;28;20043;-83
2021/04/19 01:08:40;;;;;;;8.15;6.95;;;;;;;-0.44;95.05;93184.47;2101803;28;20025;-83
2021/04/19 01:09:40;;;;;;;7.68;6.38;;;;;;;-0.42;94.85;93193.53;2103364;28;20768;-82
2021/04/19 01:10:40;;;;;;;7.65;6.88;;;;;;;-0.45;94.75;93188.22;2089529;28;20106;-83
2021/04/19 01:11:41;;;;;;;7.78;6.97;;;;;;;-0.39;94.76;93179.75;2097840;28;20028;-83
2021/04/19 01:12:41;;;;;;;8.25;6.97;;;;;;;-0.52;93.81;93186.22;2111699;27;20031;-83
2021/04/19 01:13:42;;;;;;;7.68;6.88;;;;;;;-0.52;93.94;93180.97;2098853;28;20029;-83
2021/04/19 01:14:42;;;;;;;8.32;6.70;;;;;;;-0.52;93.62;93186.97;2100431;28;20035;-82
2021/04/19 01:15:42;;;;;;;7.03;6.32;;;;;;;-0.57;94.35;93186.47;2104259;28;20106;-83
2021/04/19 01:16:44;;;;;;;10.45;7.03;;;;;;;-0.59;94.21;93192.06;2111557;28;20020;-83
2021/04/19 01:17:47;;;;;;;7.70;6.90;;;;;;;-0.75;93.96;93191.34;2097838;28;20035;-83
2021/04/19 01:18:48;;;;;;;7.40;6.40;;;;;;;-0.73;94.22;93193.63;2097724;28;20032;-83
2021/04/19 01:19:49;;;;;;;9.02;6.80;;;;;;;-0.74;94.56;93187.63;2106184;28;20030;-82
2021/04/19 01:20:51;;;;;;;9.27;7.00;;;;;;;-0.80;94.39;93186.38;2097745;28;20043;-83
2021/04/19 01:21:51;;;;;;;8.18;6.47;;;;;;;-0.81;95.02;93188.22;2105662;28;20046;-83
2021/04/19 01:22:53;;;;;;;7.05;6.35;;;;;;;-0.80;94.88;93188.97;2101961;28;20031;-82
2021/04/19 01:23:53;;;;;;;8.45;6.90;;;;;;;-0.79;95.19;93185.25;2089297;28;20118;-83
2021/04/19 01:24:54;;;;;;;8.75;6.68;;;;;;;-0.83;94.71;93189.69;2081142;28;20052;-83
2021/04/19 01:25:55;;;;;;;11.82;6.60;;;;;;;-0.84;95.44;93186.28;2089289;28;20529;-83
2021/04/19 01:26:55;;;;;;;10.23;6.97;;;;;;;-0.83;96.04;93190.44;2097607;28;20017;-83
2021/04/19 01:27:57;;;;;;;8.52;7.10;;;;;;;-0.88;96.21;93189.94;2097639;28;20343;-83
2021/04/19 01:28:58;;;;;;;7.00;6.00;;;;;;;-0.90;96.03;93182.41;2105974;28;20077;-83
2021/04/19 01:29:58;;;;;;;9.93;6.80;;;;;;;-0.97;95.34;93182.25;2106036;28;20093;-83
2021/04/19 01:30:59;;;;;;;7.40;6.40;;;;;;;-0.99;95.13;93181.84;2097425;28;20028;-83
2021/04/19 01:31:59;;;;;;;8.45;6.78;;;;;;;-1.02;95.24;93185.88;2097669;28;20366;-83
2021/04/19 01:33:00;;;;;;;9.27;7.00;;;;;;;-1.03;95.73;93184.38;2099400;28;20034;-83
2021/04/19 01:34:01;;;;;;;8.75;7.28;;;;;;;-1.03;96.13;93187.00;2097424;28;20071;-83
2021/04/19 01:35:01;;;;;;;9.18;6.57;;;;;;;-1.03;96.36;93186.25;2106024;28;20023;-82
2021/04/19 01:36:02;;;;;;;8.60;6.72;;;;;;;-1.10;96.36;93178.19;2104591;28;20518;-83
2021/04/19 01:37:02;;;;;;;9.20;6.88;;;;;;;-1.11;96.45;93177.44;2097543;28;20020;-83
2021/04/19 01:38:07;;;;;;;10.05;7.20;;;;;;;-1.16;96.20;93182.94;2106067;28;20033;-83
2021/04/19 01:39:08;;;;;;;9.38;6.93;;;;;;;-1.12;95.79;93185.66;2097673;28;20036;-83
2021/04/19 01:40:11;;;;;;;9.65;7.40;;;;;;;-1.16;95.82;93182.94;2097632;28;20021;-83
2021/04/19 01:41:12;;;;;;;9.65;6.75;;;;;;;-1.18;95.59;93181.78;2106337;28;20031;-83
2021/04/19 01:42:12;;;;;;;9.13;7.10;;;;;;;-1.16;96.08;93187.44;2105997;28;20024;-83
2021/04/19 01:43:12;;;;;;;8.05;6.95;;;;;;;-1.22;95.92;93181.69;2097532;28;20017;-83
2021/04/19 01:44:14;;;;;;;9.43;7.15;;;;;;;-1.26;95.82;93180.84;2088776;28;20075;-83
2021/04/19 01:45:16;;;;;;;7.85;6.57;;;;;;;-1.25;96.20;93179.75;2089097;28;20051;-83
2021/04/19 01:46:17;;;;;;;7.75;6.90;;;;;;;-1.25;96.36;93178.97;2098097;28;20112;-83
2021/04/19 01:47:18;;;;;;;7.65;6.70;;;;;;;-1.24;97.00;93181.25;2109572;28;20058;-83
2021/04/19 01:48:23;;;;;;;9.40;7.10;;;;;;;-1.25;96.02;93173.75;2114368;28;20028;-83
2021/04/19 01:49:23;;;;;;;9.45;7.25;;;;;;;-1.30;96.15;93178.13;2097617;28;20012;-83
2021/04/19 01:50:26;;;;;;;9.07;7.35;;;;;;;-1.31;95.99;93175.88;2097279;28;20479;-83
2021/04/19 01:51:27;;;;;;;8.52;7.05;;;;;;;-1.25;96.32;93176.34;2097308;28;20027;-83
2021/04/19 01:52:28;;;;;;;9.25;7.10;;;;;;;-1.30;95.92;93169.50;2097302;28;20447;-83
2021/04/19 01:53:28;;;;;;;10.07;7.50;;;;;;;-1.28;96.01;93173.31;2101415;28;20048;-83
2021/04/19 01:54:29;;;;;;;9.15;7.53;;;;;;;-1.33;95.50;93167.56;2113576;28;20436;-83
2021/04/19 01:55:32;;;;;;;10.52;7.43;;;;;;;-1.32;95.92;93172.47;2096607;28;20032;-83
2021/04/19 01:56:33;;;;;;;10.50;7.70;;;;;;;-1.38;95.91;93163.34;2114277;28;20099;-82
2021/04/19 01:57:34;;;;;;;8.48;6.90;;;;;;;-1.40;95.65;93172.66;2114269;28;20759;-82
2021/04/19 01:58:35;;;;;;;8.10;6.80;;;;;;;-1.42;95.69;93166.97;2114349;28;20020;-82
2021/04/19 01:59:37;;;;;;;10.77;6.95;;;;;;;-1.44;95.95;93164.69;2105319;28;20026;-82
2021/04/19 02:00:41;;;;;;;9.43;6.95;;;;;;;-1.38;95.27;93165.97;2105763;28;20027;-82
2021/04/19 02:02:09;;;;;;;8.25;6.82;;;;;;;-1.45;96.32;93171.03;2105928;28;20118;-83
2021/04/19 02:04:43;;;;;;;;;;;;;;;-1.44;96.13;93169.19;2148350;27;20120;-80
2021/04/19 02:06:23;;;;;;;8.50;6.28;;;;;;;-1.50;95.52;93165.28;2113043;28;19961;-81
2021/04/19 02:07:38;;;;;;;8.40;6.72;;;;;;;-1.57;95.58;93163.25;2109071;27;20459;-81
2021/04/19 02:09:27;;;;;;;8.25;6.82;;;;;;;-1.59;96.76;93170.69;2125682;27;20431;-81
2021/04/19 02:10:36;;;;;;;11.23;6.47;;;;;;;-1.54;97.07;93173.06;2112280;27;20445;-80
2021/04/19 02:11:43;;;;;;;9.63;7.32;;;;;;;-1.58;96.65;93169.56;2123702;27;20536;-81
2021/04/19 02:13:05;;;;;;;10.45;6.97;;;;;;;-1.64;96.35;93170.94;2122288;27;20568;-81
2021/04/19 02:14:17;;;;;;;8.77;7.38;;;;;;;-1.65;96.94;93177.28;2124373;27;20448;-81
2021/04/19 02:15:49;;;;;;;9.43;7.05;;;;;;;-1.67;97.10;93171.59;2119361;27;20445;-81
2021/04/19 02:17:18;;;;;;;10.18;7.00;;;;;;;-1.61;96.27;93168.41;2117343;28;20435;-81
2021/04/19 02:18:29;;;;;;;11.00;7.22;;;;;;;-1.71;97.14;93176.78;2108323;28;20451;-81
2021/04/19 02:19:42;;;;;;;9.90;8.23;;;;;;;-1.68;98.30;93170.84;2107564;28;20485;-81
2021/04/19 02:20:54;;;;;;;11.43;7.70;;;;;;;-1.71;98.88;93174.16;2114523;28;20441;-81
2021/04/19 02:22:05;;;;;;;11.43;7.82;;;;;;;-1.70;99.25;93167.81;2116195;27;20426;-80
2021/04/19 02:23:19;;;;;;;12.57;7.85;;;;;;;-1.70;98.47;93167.81;2112939;28;20473;-81
2021/04/19 02:24:23;;;;;;;10.93;8.05;;;;;;;-1.77;98.91;93170.25;2114338;28;20454;-81
2021/04/19 02:25:34;;;;;;;10.30;7.68;;;;;;;-1.73;98.91;93167.72;2104911;28;20441;-81
2021/04/19 02:26:38;;;;;;;10.55;7.78;;;;;;;-1.78;98.77;93173.97;2105890;28;20435;-81
2021/04/19 02:27:43;;;;;;;10.68;8.05;;;;;;;-1.76;98.05;93171.75;2105064;28;20564;-81
2021/04/19 02:28:49;;;;;;;12.80;8.15;;;;;;;-1.76;98.39;93166.53;2105012;28;20815;-81
2021/04/19 02:29:53;;;;;;;10.75;7.97;;;;;;;-1.72;98.57;93174.47;2105023;28;20989;-81
2021/04/19 02:31:09;;;;;;;11.82;7.88;;;;;;;-1.67;98.01;93177.59;2096803;28;20439;-81
2021/04/19 02:32:26;;;;;;;9.70;7.78;;;;;;;-1.69;98.30;93169.34;2100124;28;20812;-81
2021/04/19 02:33:31;;;;;;;10.95;8.50;;;;;;;-1.71;97.91;93168.91;2112122;27;20436;-81
2021/04/19 02:34:34;;;;;;;10.07;8.15;;;;;;;-1.77;98.42;93175.47;2115183;28;20430;-81
2021/04/19 02:35:37;;;;;;;13.27;8.85;;;;;;;-1.74;97.86;93182.69;2104774;28;20487;-81
2021/04/19 02:36:42;;;;;;;12.00;8.27;;;;;;;-1.79;97.73;93172.47;2112990;28;21036;-81
2021/04/19 02:37:44;;;;;;;9.18;7.93;;;;;;;-1.73;98.01;93178.19;2105689;28;20427;-81
2021/04/19 02:38:50;;;;;;;11.13;8.27;;;;;;;-1.81;97.62;93177.25;2104777;28;20445;-81
2021/04/19 02:39:51;;;;;;;9.27;7.95;;;;;;;-1.83;96.76;93179.47;2105413;28;20473;-81
2021/04/19 02:40:54;;;;;;;10.70;8.30;;;;;;;-1.80;96.80;93176.94;2105018;27;20442;-81
2021/04/19 02:41:57;;;;;;;10.73;8.43;;;;;;;-1.89;97.34;93181.56;2112056;28;20440;-80
2021/04/19 02:42:59;;;;;;;13.02;8.38;;;;;;;-1.87;97.77;93181.97;2107287;27;20453;-83
2021/04/19 02:44:00;;;;;;;11.55;8.73;;;;;;;-1.81;97.74;93179.88;2119800;27;20478;-83
2021/04/19 02:45:02;;;;;;;11.18;8.35;;;;;;;-1.82;97.43;93186.97;2112632;28;20441;-80
2021/04/19 02:46:03;;;;;;;11.35;8.23;;;;;;;-1.83;97.32;93182.09;2114702;27;20484;-80
2021/04/19 02:47:05;;;;;;;12.57;8.35;;;;;;;-1.89;97.68;93178.94;2110604;28;20524;-81
2021/04/19 02:48:07;;;;;;;10.98;8.45;;;;;;;-1.80;97.51;93182.19;2108574;28;20480;-81
2021/04/19 02:49:08;;;;;;;10.27;7.82;;;;;;;-1.75;96.96;93175.16;2106996;28;20787;-81
2021/04/19 02:50:13;;;;;;;10.45;8.23;;;;;;;-1.81;96.54;93175.38;2112671;28;20565;-80
2021/04/19 02:51:17;;;;;;;10.68;7.97;;;;;;;-1.83;96.23;93180.22;2113447;28;20445;-80
2021/04/19 02:52:18;;;;;;;11.65;8.43;;;;;;;-1.82;96.47;93178.34;2104656;28;20453;-81
2021/04/19 02:53:20;;;;;;;11.95;8.55;;;;;;;-1.81;97.27;93179.88;2112840;27;20445;-81
2021/04/19 02:54:22;;;;;;;11.35;8.82;;;;;;;-1.83;97.37;93176.84;2116657;28;21042;-80
2021/04/19 02:55:27;;;;;;;12.10;8.50;;;;;;;-1.87;96.94;93178.59;2102582;28;20997;-80
2021/04/19 02:56:30;;;;;;;10.88;8.75;;;;;;;-1.92;97.44;93169.13;2113918;27;20450;-81
2021/04/19 02:57:38;;;;;;;11.73;8.85;;;;;;;-1.83;97.38;93188.06;2112975;28;20437;-81
2021/04/19 02:58:43;;;;;;;12.98;8.68;;;;;;;-1.85;96.80;93181.63;2123262;27;20451;-81
2021/04/19 02:59:44;;;;;;;10.98;8.80;;;;;;;-1.86;97.45;93170.41;2120736;28;20991;-80
2021/04/19 03:00:48;;;;;;;11.55;8.82;;;;;;;-1.91;96.94;93175.88;2112731;27;20453;-81
2021/04/19 03:01:54;;;;;;;14.30;8.65;;;;;;;-1.86;97.42;93177.50;2104135;28;21055;-81
2021/04/19 03:02:58;;;;;;;11.80;8.60;;;;;;;-1.91;97.96;93175.88;2102254;28;20458;-80
2021/04/19 03:04:07;;;;;;;10.13;8.40;;;;;;;-1.98;97.87;93180.94;2113121;27;21034;-81
2021/04/19 03:05:08;;;;;;;11.13;8.40;;;;;;;-1.94;97.77;93181.78;2113462;28;20442;-81
2021/04/19 03:06:09;;;;;;;13.10;8.77;;;;;;;-1.98;96.91;93180.94;2104361;28;20504;-81
2021/04/19 03:07:10;;;;;;;9.98;8.10;;;;;;;-1.96;96.55;93183.25;2101410;28;20470;-81
2021/04/19 03:08:16;;;;;;;11.55;8.40;;;;;;;-1.95;97.31;93182.13;2104321;28;20438;-81
2021/04/19 03:09:18;;;;;;;10.82;8.45;;;;;;;-1.93;97.68;93175.47;2112517;28;20027;-81
2021/04/19 03:10:20;;;;;;;11.15;8.13;;;;;;;-1.98;97.93;93177.56;2112559;28;20475;-81
2021/04/19 03:11:26;;;;;;;12.40;8.63;;;;;;;-1.96;97.87;93183.25;2112633;28;20434;-81
2021/04/19 03:12:30;;;;;;;14.45;8.25;;;;;;;-1.95;98.97;93180.28;2097257;28;20100;-81
2021/04/19 03:13:32;;;;;;;10.50;8.32;;;;;;;-1.92;98.80;93181.47;2105087;28;20020;-81
2021/04/19 03:14:36;;;;;;;12.20;8.77;;;;;;;-1.92;98.28;93182.22;2112744;28;20414;-81
2021/04/19 03:15:40;;;;;;;11.70;8.45;;;;;;;-1.91;98.85;93178.50;2096471;28;20449;-81
2021/04/19 03:16:55;;;;;;;10.82;8.25;;;;;;;-2.01;98.21;93186.09;2090992;28;20509;-81
2021/04/19 03:18:01;;;;;;;11.98;8.75;;;;;;;-2.01;98.56;93178.25;2110573;27;20421;-81
2021/04/19 03:19:09;;;;;;;11.73;8.32;;;;;;;-2.00;99.17;93177.91;2107489;28;20840;-81
2021/04/19 03:20:18;;;;;;;10.52;7.80;;;;;;;-1.96;99.23;93184.00;2097527;28;20449;-81
2021/04/19 03:21:21;;;;;;;9.93;8.13;;;;;;;-1.95;99.18;93184.75;2091435;28;20474;-81
2021/04/19 03:22:24;;;;;;;8.68;7.63;;;;;;;-1.93;99.03;93175.47;2090712;28;20656;-81
2021/04/19 03:23:25;;;;;;;11.15;8.43;;;;;;;-1.95;99.41;93169.78;2098567;28;20962;-81
2021/04/19 03:24:27;;;;;;;8.75;7.70;;;;;;;-1.98;98.91;93180.19;2090236;28;20044;-81
2021/04/19 03:25:28;;;;;;;8.60;7.57;;;;;;;-1.95;98.88;93184.75;2100368;27;20029;-81
2021/04/19 03:26:32;;;;;;;9.70;8.35;;;;;;;-1.90;98.97;93181.88;2107021;28;20874;-82
2021/04/19 03:27:34;;;;;;;10.40;8.10;;;;;;;-1.91;98.57;93177.75;2107187;28;20020;-81
2021/04/19 03:28:37;;;;;;;9.13;8.07;;;;;;;-1.92;98.25;93179.63;2096445;28;20430;-81
2021/04/19 03:29:40;;;;;;;11.68;8.25;;;;;;;-1.87;98.47;93181.22;2098745;28;21028;-81
2021/04/19 03:30:40;;;;;;;8.88;7.80;;;;;;;-1.91;98.55;93175.88;2106493;28;20484;-81
2021/04/19 03:31:44;;;;;;;11.70;8.20;;;;;;;-1.90;98.50;93176.66;2092697;28;21305;-81
2021/04/19 03:32:51;;;;;;;9.57;7.50;;;;;;;-1.90;98.10;93177.41;2099188;28;20091;-81
2021/04/19 03:33:55;;;;;;;10.10;8.32;;;;;;;-1.90;98.27;93177.41;2107687;27;20448;-81
2021/04/19 03:34:56;;;;;;;9.00;7.85;;;;;;;-1.91;98.71;93175.13;2115815;28;20417;-81
2021/04/19 03:35:58;;;;;;;13.38;8.82;;;;;;;-1.89;98.41;93175.53;2123667;27;20762;-81
2021/04/19 03:37:03;;;;;;;10.15;8.18;;;;;;;-1.89;98.61;93173.72;2113962;28;20024;-81
2021/04/19 03:38:05;;;;;;;10.68;8.10;;;;;;;-1.87;98.68;93178.59;2106928;28;20494;-82
2021/04/19 03:39:07;;;;;;;11.05;7.70;;;;;;;-1.92;99.21;93174.38;2089884;28;20435;-82
2021/04/19 03:40:21;;;;;;;9.30;7.85;;;;;;;-1.95;99.14;93175.03;2090376;28;20884;-81
2021/04/19 03:41:22;;;;;;;10.38;7.85;;;;;;;-1.91;98.75;93175.88;2106758;28;20414;-82
2021/04/19 03:42:25;;;;;;;11.57;8.02;;;;;;;-1.90;99.58;93180.03;2098399;28;20999;-81
2021/04/19 03:43:26;;;;;;;11.20;7.80;;;;;;;-1.90;99.32;93182.66;2099593;27;20435;-81
2021/04/19 03:44:33;;;;;;;11.68;7.85;;;;;;;-1.95;99.59;93171.66;2123825;27;20460;-81
2021/04/19 03:45:37;;;;;;;9.73;7.82;;;;;;;-1.87;99.09;93178.59;2107351;28;20446;-81
2021/04/19 03:46:41;;;;;;;9.27;7.60;;;;;;;-1.89;98.86;93175.53;2107427;27;21078;-82
2021/04/19 03:47:43;;;;;;;10.80;8.05;;;;;;;-1.88;98.95;93172.59;2106611;28;20586;-81
2021/04/19 03:48:45;;;;;;;8.75;7.55;;;;;;;-1.94;99.35;93178.41;2101694;27;20974;-80
2021/04/19 03:49:53;;;;;;;10.07;7.97;;;;;;;-1.88;99.33;93171.84;2099694;28;20541;-80
2021/04/19 03:51:02;;;;;;;12.98;8.00;;;;;;;-1.91;99.16;93170.66;2090714;28;20893;-81
2021/04/19 03:52:06;;;;;;;11.38;7.75;;;;;;;-1.98;99.17;93167.84;2083887;28;20598;-80
2021/04/19 03:53:08;;;;;;;9.48;7.70;;;;;;;-1.95;99.32;93166.41;2090698;28;20491;-81
2021/04/19 03:54:10;;;;;;;9.68;7.68;;;;;;;-1.91;99.35;93172.50;2103095;28;20449;-81
2021/04/19 03:55:13;;;;;;;12.52;8.45;;;;;;;-1.94;99.16;93162.69;2103909;28;20514;-81
2021/04/19 03:56:16;;;;;;;11.20;8.05;;;;;;;-1.99;99.25;93168.94;2098486;28;20439;-81
2021/04/19 03:57:23;;;;;;;9.25;7.85;;;;;;;-1.95;99.46;93161.19;2114190;28;20519;-81
2021/04/19 03:58:27;;;;;;;10.13;7.70;;;;;;;-1.97;98.97;93163.38;2108236;27;20422;-81
2021/04/19 03:59:30;;;;;;;10.52;8.20;;;;;;;-1.97;99.04;93161.53;2106859;28;20438;-80
2021/04/19 04:00:32;;;;;;;11.57;8.60;;;;;;;-2.07;98.97;93165.38;2106704;28;20449;-81
2021/04/19 04:01:35;;;;;;;12.02;8.43;;;;;;;-2.01;99.20;93165.16;2098557;28;20836;-80
2021/04/19 04:02:39;;;;;;;9.48;7.65;;;;;;;-1.96;99.19;93152.56;2098546;28;20439;-81
2021/04/19 04:03:41;;;;;;;11.02;8.27;;;;;;;-1.99;99.25;93161.09;2099072;28;20507;-81
2021/04/19 04:04:44;;;;;;;11.02;7.85;;;;;;;-2.00;99.20;93158.81;2098569;28;20470;-81
2021/04/19 04:05:47;;;;;;;12.27;8.85;;;;;;;-2.06;99.19;93159.06;2106973;27;20445;-82
2021/04/19 04:06:49;;;;;;;10.93;8.65;;;;;;;-1.98;99.57;93165.22;2115316;27;20493;-82
2021/04/19 04:07:51;;;;;;;10.43;8.07;;;;;;;-2.06;98.99;93164.28;2106857;28;20507;-81
2021/04/19 04:08:53;;;;;;;14.55;8.85;;;;;;;-2.05;98.87;93152.72;2098206;28;20602;-81
2021/04/19 04:09:55;;;;;;;8.73;7.60;;;;;;;-1.99;99.30;93157.72;2098942;28;20524;-81
2021/04/19 04:10:57;;;;;;;12.02;8.40;;;;;;;-1.96;99.12;93162.28;2115114;28;20952;-81
2021/04/19 04:11:57;;;;;;;10.52;8.32;;;;;;;-1.94;99.15;93162.69;2106624;28;20430;-81
2021/04/19 04:12:58;;;;;;;9.40;7.95;;;;;;;-2.04;99.06;93159.47;2115002;28;20406;-81
2021/04/19 04:13:58;;;;;;;10.57;8.48;;;;;;;-1.97;98.59;93163.38;2123347;27;20120;-81
2021/04/19 04:14:59;;;;;;;9.75;8.10;;;;;;;-1.98;98.90;93159.22;2110740;28;20019;-81
2021/04/19 04:15:59;;;;;;;21.35;14.63;;;;;;;-1.98;98.85;93159.22;2098021;28;20059;-81
2021/04/19 04:17:00;;;;;;;19.45;13.88;;;;;;;-1.96;98.34;93159.66;2106567;28;20065;-81
2021/04/19 04:18:00;;;;;;;17.75;13.40;;;;;;;-2.06;98.61;93156.44;2098065;28;20090;-81
2021/04/19 04:19:01;;;;;;;14.43;11.18;;;;;;;-2.07;99.03;93154.91;2089898;28;20052;-81
2021/04/19 04:20:03;;;;;;;11.57;8.90;;;;;;;-2.06;98.81;93155.69;2097927;28;20052;-81
2021/04/19 04:21:04;;;;;;;11.15;8.82;;;;;;;-2.00;98.98;93156.19;2100878;28;20686;-81
2021/04/19 04:22:04;;;;;;;10.68;8.38;;;;;;;-2.03;98.70;93155.75;2107949;28;20891;-81
2021/04/19 04:23:04;;;;;;;10.82;8.52;;;;;;;-2.09;98.54;93153.72;2104742;28;20438;-81
2021/04/19 04:24:05;;;;;;;9.52;8.02;;;;;;;-2.05;99.00;93162.44;2106389;28;20020;-81
2021/04/19 04:25:07;;;;;;;10.40;8.63;;;;;;;-2.06;99.28;93156.44;2106457;28;20028;-81
2021/04/19 04:26:07;;;;;;;11.05;8.63;;;;;;;-1.97;98.97;93161.53;2106189;28;20492;-80
2021/04/19 04:27:08;;;;;;;10.82;8.15;;;;;;;-2.05;98.82;93160.56;2099536;28;20443;-81
2021/04/19 04:28:09;;;;;;;11.02;8.15;;;;;;;-2.04;98.71;93167.31;2097721;28;20495;-81
2021/04/19 04:29:10;;;;;;;10.65;8.63;;;;;;;-2.06;98.54;93160.91;2097906;28;20426;-81
2021/04/19 04:30:11;;;;;;;10.50;8.85;;;;;;;-2.04;99.01;93156.84;2104010;28;20793;-81
2021/04/19 04:31:12;;;;;;;10.73;7.97;;;;;;;-2.04;98.50;93156.09;2097782;28;20067;-81
2021/04/19 04:32:13;;;;;;;10.20;8.05;;;;;;;-2.08;98.61;93153.38;2097989;28;20806;-81
2021/04/19 04:33:13;;;;;;;10.80;9.02;;;;;;;-2.02;98.52;93153.88;2097856;28;20111;-81
2021/04/19 04:34:13;;;;;;;10.30;8.57;;;;;;;-2.00;98.29;93158.81;2106399;28;20422;-81
2021/04/19 04:35:14;;;;;;;13.32;8.70;;;;;;;-2.03;98.97;93153.13;2097841;28;20020;-81
2021/04/19 04:36:16;;;;;;;11.48;8.73;;;;;;;-2.06;99.27;93158.31;2089554;28;20032;-81
2021/04/19 04:37:17;;;;;;;13.20;8.77;;;;;;;-2.06;99.50;93168.78;2089998;28;20025;-81
2021/04/19 04:38:17;;;;;;;12.48;10.18;;;;;;;-2.06;100.00;93164.28;2089569;28;20828;-81
2021/04/19 04:39:18;;;;;;;14.80;11.07;;;;;;;-2.06;99.71;93164.28;2101045;28;20082;-81
2021/04/19 04:40:19;;;;;;;12.75;10.50;;;;;;;-2.06;99.73;93163.53;2114851;28;20032;-81
2021/04/19 04:41:19;;;;;;;14.23;10.65;;;;;;;-2.10;99.84;93166.06;2114604;28;20434;-81
2021/04/19 04:42:23;;;;;;;14.27;9.98;;;;;;;-2.07;99.74;93162.00;2114636;28;20023;-81
2021/04/19 04:43:27;;;;;;;10.82;8.98;;;;;;;-2.07;99.98;93160.13;2098500;28;20178;-81
2021/04/19 04:44:35;;;;;;;11.63;9.00;;;;;;;-2.03;99.06;93168.09;2099333;27;20461;-80
2021/04/19 04:45:36;;;;;;;11.20;8.88;;;;;;;-1.99;99.35;93168.19;2109280;27;21011;-80
2021/04/19 04:46:45;;;;;;;11.07;9.25;;;;;;;-2.09;98.79;93172.06;2100419;28;20462;-81
2021/04/19 04:47:55;;;;;;;13.07;8.50;;;;;;;-2.00;98.39;93175.28;2114236;27;20024;-81
2021/04/19 04:49:03;;;;;;;13.60;8.80;;;;;;;-1.98;98.49;93162.59;2106365;28;20032;-80
2021/04/19 04:50:10;;;;;;;13.02;8.35;;;;;;;-2.05;98.29;93167.69;2108304;27;20069;-81
2021/04/19 04:51:17;;;;;;;12.65;8.25;;;;;;;-2.08;98.79;93163.84;2113382;28;20449;-80
2021/04/19 04:52:19;;;;;;;11.45;8.10;;;;;;;-1.97;98.66;93160.78;2101886;28;20455;-80
2021/04/19 04:53:25;;;;;;;11.50;9.02;;;;;;;-2.14;98.91;93162.59;2104398;28;20479;-82
2021/04/19 04:54:28;;;;;;;11.73;8.45;;;;;;;-2.14;98.89;93157.34;2110184;28;20529;-81
2021/04/19 04:55:29;;;;;;;11.90;9.10;;;;;;;-2.06;98.82;93153.06;2110123;28;20458;-82
2021/04/19 04:56:35;;;;;;;12.38;9.82;;;;;;;-2.16;99.09;93154.28;2106466;28;20552;-83
2021/04/19 04:57:37;;;;;;;9.80;8.57;;;;;;;-2.03;99.54;93153.13;2107511;27;20513;-80
2021/04/19 04:58:40;;;;;;;10.95;8.82;;;;;;;-2.03;99.76;93155.00;2106275;28;20446;-80